sensor_id;sensor_type;location;lat;lon;timestamp;pressure;altitude;pressure_sealevel;temperature;humidity
83375;BME280;73282;50.882;5.984;2023-12-20T00:02:08;99402.91;;;18.98;46.03
83375;BME280;73282;50.882;5.984;2023-12-20T00:04:41;99411.28;;;18.97;45.95
83375;BME280;73282;50.882;5.984;2023-12-20T00:07:10;99412.06;;;18.97;46.24
83375;BME280;73282;50.882;5.984;2023-12-20T00:09:40;99420.88;;;18.98;46.48
83375;BME280;73282;50.882;5.984;2023-12-20T00:12:07;99410.94;;;18.98;46.10
83375;BME280;73282;50.882;5.984;2023-12-20T00:14:34;99417.75;;;18.96;46.36
83375;BME280;73282;50.882;5.984;2023-12-20T00:17:03;99415.53;;;18.98;46.12
83375;BME280;73282;50.882;5.984;2023-12-20T00:19:33;99420.88;;;18.98;46.15
83375;BME280;73282;50.882;5.984;2023-12-20T00:22:00;99418.66;;;19.00;45.91
83375;BME280;73282;50.882;5.984;2023-12-20T00:24:29;99421.66;;;18.98;46.20
83375;BME280;73282;50.882;5.984;2023-12-20T00:26:57;99424.97;;;18.95;46.08
83375;BME280;73282;50.882;5.984;2023-12-20T00:29:26;99436.94;;;18.98;46.00
83375;BME280;73282;50.882;5.984;2023-12-20T00:31:56;99440.72;;;18.97;46.33
83375;BME280;73282;50.882;5.984;2023-12-20T00:34:28;99446.53;;;18.99;46.03
83375;BME280;73282;50.882;5.984;2023-12-20T00:37:03;99449.53;;;18.97;46.33
83375;BME280;73282;50.882;5.984;2023-12-20T00:39:29;99460.56;;;18.96;45.97
83375;BME280;73282;50.882;5.984;2023-12-20T00:41:59;99465.13;;;18.95;45.96
83375;BME280;73282;50.882;5.984;2023-12-20T00:44:31;99465.13;;;18.95;45.90
83375;BME280;73282;50.882;5.984;2023-12-20T00:47:04;99465.91;;;18.96;46.08
83375;BME280;73282;50.882;5.984;2023-12-20T00:49:33;99467.78;;;18.95;45.87
83375;BME280;73282;50.882;5.984;2023-12-20T00:52:03;99475.03;;;18.95;46.24
83375;BME280;73282;50.882;5.984;2023-12-20T00:54:32;99474.06;;;18.91;45.78
83375;BME280;73282;50.882;5.984;2023-12-20T00:56:59;99476.44;;;18.92;46.06
83375;BME280;73282;50.882;5.984;2023-12-20T00:59:31;99502.72;;;18.90;45.90
83375;BME280;73282;50.882;5.984;2023-12-20T01:01:58;99506.81;;;18.88;46.08
83375;BME280;73282;50.882;5.984;2023-12-20T01:04:24;99497.19;;;18.87;46.05
83375;BME280;73282;50.882;5.984;2023-12-20T01:06:52;99501.78;;;18.86;45.84
83375;BME280;73282;50.882;5.984;2023-12-20T01:09:19;99500.69;;;18.87;45.62
83375;BME280;73282;50.882;5.984;2023-12-20T01:11:52;99505.53;;;18.85;46.03
83375;BME280;73282;50.882;5.984;2023-12-20T01:14:25;99512.00;;;18.84;45.73
83375;BME280;73282;50.882;5.984;2023-12-20T01:16:55;99508.53;;;18.84;45.89
83375;BME280;73282;50.882;5.984;2023-12-20T01:19:24;99505.88;;;18.84;45.57
83375;BME280;73282;50.882;5.984;2023-12-20T01:21:53;99519.56;;;18.82;45.80
83375;BME280;73282;50.882;5.984;2023-12-20T01:24:19;99511.06;;;18.80;45.97
83375;BME280;73282;50.882;5.984;2023-12-20T01:26:44;99505.69;;;18.80;46.10
83375;BME280;73282;50.882;5.984;2023-12-20T01:29:14;99507.25;;;18.81;45.86
83375;BME280;73282;50.882;5.984;2023-12-20T01:31:42;99526.31;;;18.80;45.81
83375;BME280;73282;50.882;5.984;2023-12-20T01:34:12;99507.91;;;18.78;45.86
83375;BME280;73282;50.882;5.984;2023-12-20T01:36:41;99498.75;;;18.79;45.92
83375;BME280;73282;50.882;5.984;2023-12-20T01:39:13;99508.66;;;18.79;45.49
83375;BME280;73282;50.882;5.984;2023-12-20T01:41:41;99499.38;;;18.76;45.76
83375;BME280;73282;50.882;5.984;2023-12-20T01:44:11;99499.38;;;18.76;46.00
83375;BME280;73282;50.882;5.984;2023-12-20T01:46:40;99498.59;;;18.76;45.54
83375;BME280;73282;50.882;5.984;2023-12-20T01:49:12;99504.56;;;18.73;45.56
83375;BME280;73282;50.882;5.984;2023-12-20T01:51:43;99508.50;;;18.75;45.60
83375;BME280;73282;50.882;5.984;2023-12-20T01:54:13;99497.63;;;18.72;45.86
83375;BME280;73282;50.882;5.984;2023-12-20T01:56:43;99517.63;;;18.74;45.87
83375;BME280;73282;50.882;5.984;2023-12-20T01:59:13;99512.13;;;18.71;45.82
83375;BME280;73282;50.882;5.984;2023-12-20T02:01:42;99510.22;;;18.71;45.91
83375;BME280;73282;50.882;5.984;2023-12-20T02:04:12;99517.47;;;18.71;45.56
83375;BME280;73282;50.882;5.984;2023-12-20T02:06:42;99513.22;;;18.70;45.68
83375;BME280;73282;50.882;5.984;2023-12-20T02:09:13;99517.75;;;18.69;45.99
83375;BME280;73282;50.882;5.984;2023-12-20T02:11:46;99515.41;;;18.68;45.83
83375;BME280;73282;50.882;5.984;2023-12-20T02:14:13;99523.44;;;18.68;45.54
83375;BME280;73282;50.882;5.984;2023-12-20T02:16:45;99522.19;;;18.65;45.86
83375;BME280;73282;50.882;5.984;2023-12-20T02:19:14;99520.09;;;18.62;45.45
83375;BME280;73282;50.882;5.984;2023-12-20T02:21:44;99526.25;;;18.63;45.94
83375;BME280;73282;50.882;5.984;2023-12-20T02:24:16;99520.09;;;18.62;45.72
83375;BME280;73282;50.882;5.984;2023-12-20T02:26:49;99519.63;;;18.60;45.30
83375;BME280;73282;50.882;5.984;2023-12-20T02:29:19;99519.63;;;18.60;45.50
83375;BME280;73282;50.882;5.984;2023-12-20T02:31:52;99522.31;;;18.60;45.62
83375;BME280;73282;50.882;5.984;2023-12-20T02:34:23;99527.34;;;18.62;45.78
83375;BME280;73282;50.882;5.984;2023-12-20T02:36:50;99528.44;;;18.61;45.50
83375;BME280;73282;50.882;5.984;2023-12-20T02:39:23;99529.25;;;18.61;45.66
83375;BME280;73282;50.882;5.984;2023-12-20T02:41:52;99520.41;;;18.61;45.32
83375;BME280;73282;50.882;5.984;2023-12-20T02:44:22;99518.22;;;18.63;45.38
83375;BME280;73282;50.882;5.984;2023-12-20T02:46:52;99524.19;;;18.60;45.37
83375;BME280;73282;50.882;5.984;2023-12-20T02:49:19;99522.63;;;18.59;45.45
83375;BME280;73282;50.882;5.984;2023-12-20T02:51:52;99520.25;;;18.57;45.33
83375;BME280;73282;50.882;5.984;2023-12-20T02:54:19;99532.84;;;18.57;45.45
83375;BME280;73282;50.882;5.984;2023-12-20T02:56:48;99518.97;;;18.55;45.33
83375;BME280;73282;50.882;5.984;2023-12-20T02:59:20;99527.78;;;18.55;45.50
83375;BME280;73282;50.882;5.984;2023-12-20T03:01:52;99522.44;;;18.55;45.43
83375;BME280;73282;50.882;5.984;2023-12-20T03:04:22;99539.25;;;18.56;45.11
83375;BME280;73282;50.882;5.984;2023-12-20T03:06:51;99531.25;;;18.56;45.20
83375;BME280;73282;50.882;5.984;2023-12-20T03:09:18;99529.19;;;18.53;45.03
83375;BME280;73282;50.882;5.984;2023-12-20T03:11:45;99532.97;;;18.52;45.31
83375;BME280;73282;50.882;5.984;2023-12-20T03:14:17;99525.25;;;18.50;45.15
83375;BME280;73282;50.882;5.984;2023-12-20T03:16:55;99527.91;;;18.50;45.29
83375;BME280;73282;50.882;5.984;2023-12-20T03:19:27;99526.03;;;18.51;45.27
83375;BME280;73282;50.882;5.984;2023-12-20T03:21:53;99521.81;;;18.50;45.23
83375;BME280;73282;50.882;5.984;2023-12-20T03:24:18;99521.31;;;18.48;45.11
83375;BME280;73282;50.882;5.984;2023-12-20T03:26:46;99516.56;;;18.45;45.13
83375;BME280;73282;50.882;5.984;2023-12-20T03:29:25;99527.75;;;18.47;45.30
83375;BME280;73282;50.882;5.984;2023-12-20T03:31:55;99526.50;;;18.44;45.48
83375;BME280;73282;50.882;5.984;2023-12-20T03:34:21;99524.91;;;18.43;45.12
83375;BME280;73282;50.882;5.984;2023-12-20T03:36:48;99520.66;;;18.42;45.32
83375;BME280;73282;50.882;5.984;2023-12-20T03:39:18;99529.25;;;18.39;45.07
83375;BME280;73282;50.882;5.984;2023-12-20T03:41:51;99523.91;;;18.39;45.39
83375;BME280;73282;50.882;5.984;2023-12-20T03:44:18;99512.72;;;18.37;44.99
83375;BME280;73282;50.882;5.984;2023-12-20T03:46:44;99507.38;;;18.37;45.15
83375;BME280;73282;50.882;5.984;2023-12-20T03:49:12;99519.34;;;18.40;45.04
83375;BME280;73282;50.882;5.984;2023-12-20T03:51:41;99507.88;;;18.39;45.33
83375;BME280;73282;50.882;5.984;2023-12-20T03:54:15;99511.34;;;18.40;45.19
83375;BME280;73282;50.882;5.984;2023-12-20T03:56:47;99503.13;;;18.36;45.11
83375;BME280;73282;50.882;5.984;2023-12-20T03:59:14;99505.81;;;18.36;45.38
83375;BME280;73282;50.882;5.984;2023-12-20T04:01:43;99509.88;;;18.34;45.17
83375;BME280;73282;50.882;5.984;2023-12-20T04:04:17;99507.22;;;18.34;45.17
83375;BME280;73282;50.882;5.984;2023-12-20T04:06:47;99505.34;;;18.34;44.99
83375;BME280;73282;50.882;5.984;2023-12-20T04:09:19;99515.22;;;18.34;45.26
83375;BME280;73282;50.882;5.984;2023-12-20T04:11:49;99499.03;;;18.30;44.87
83375;BME280;73282;50.882;5.984;2023-12-20T04:14:18;99512.38;;;18.30;44.97
83375;BME280;73282;50.882;5.984;2023-12-20T04:16:48;99510.03;;;18.28;44.95
83375;BME280;73282;50.882;5.984;2023-12-20T04:19:15;99503.09;;;18.27;45.35
83375;BME280;73282;50.882;5.984;2023-12-20T04:21:45;99504.97;;;18.27;45.38
83375;BME280;73282;50.882;5.984;2023-12-20T04:24:22;99505.75;;;18.27;44.95
83375;BME280;73282;50.882;5.984;2023-12-20T04:26:50;99499.63;;;18.27;44.94
83375;BME280;73282;50.882;5.984;2023-12-20T04:29:20;99497.75;;;18.27;44.93
83375;BME280;73282;50.882;5.984;2023-12-20T04:31:47;99507.63;;;18.27;45.15
83375;BME280;73282;50.882;5.984;2023-12-20T04:34:17;99511.72;;;18.24;45.17
83375;BME280;73282;50.882;5.984;2023-12-20T04:36:53;99503.72;;;18.24;45.13
83375;BME280;73282;50.882;5.984;2023-12-20T04:39:28;99505.91;;;18.22;44.94
83375;BME280;73282;50.882;5.984;2023-12-20T04:41:57;99515.81;;;18.22;44.82
83375;BME280;73282;50.882;5.984;2023-12-20T04:44:24;99513.91;;;18.22;45.03
83375;BME280;73282;50.882;5.984;2023-12-20T04:46:54;99517.41;;;18.23;44.87
83375;BME280;73282;50.882;5.984;2023-12-20T04:49:23;99511.25;;;18.22;45.14
83375;BME280;73282;50.882;5.984;2023-12-20T04:51:50;99518.78;;;18.20;44.79
83375;BME280;73282;50.882;5.984;2023-12-20T04:54:18;99510.75;;;18.20;44.84
83375;BME280;73282;50.882;5.984;2023-12-20T04:56:45;99518.16;;;18.23;45.04
83375;BME280;73282;50.882;5.984;2023-12-20T04:59:13;99520.06;;;18.23;45.09
83375;BME280;73282;50.882;5.984;2023-12-20T05:01:42;99508.88;;;18.21;44.98
83375;BME280;73282;50.882;5.984;2023-12-20T05:04:10;99512.31;;;18.21;44.94
83375;BME280;73282;50.882;5.984;2023-12-20T05:06:39;99525.41;;;18.23;45.13
83375;BME280;73282;50.882;5.984;2023-12-20T05:09:09;99523.03;;;18.21;44.81
83375;BME280;73282;50.882;5.984;2023-12-20T05:11:35;99524.13;;;18.20;45.18
83375;BME280;73282;50.882;5.984;2023-12-20T05:14:08;99518.00;;;18.20;44.88
83375;BME280;73282;50.882;5.984;2023-12-20T05:16:38;99527.59;;;18.21;44.86
83375;BME280;73282;50.882;5.984;2023-12-20T05:19:07;99529.78;;;18.19;44.84
83375;BME280;73282;50.882;5.984;2023-12-20T05:21:36;99518.31;;;18.18;44.92
83375;BME280;73282;50.882;5.984;2023-12-20T05:24:05;99512.47;;;18.16;44.87
83375;BME280;73282;50.882;5.984;2023-12-20T05:26:31;99519.22;;;18.14;44.96
83375;BME280;73282;50.882;5.984;2023-12-20T05:29:00;99526.16;;;18.15;44.69
83375;BME280;73282;50.882;5.984;2023-12-20T05:31:30;99525.03;;;18.16;44.89
83375;BME280;73282;50.882;5.984;2023-12-20T05:34:00;99517.66;;;18.13;45.04
83375;BME280;73282;50.882;5.984;2023-12-20T05:36:29;99517.34;;;18.14;44.88
83375;BME280;73282;50.882;5.984;2023-12-20T05:38:55;99513.06;;;18.13;44.90
83375;BME280;73282;50.882;5.984;2023-12-20T05:41:27;99516.53;;;18.14;44.93
83375;BME280;73282;50.882;5.984;2023-12-20T05:43:56;99513.06;;;18.13;45.05
83375;BME280;73282;50.882;5.984;2023-12-20T05:46:27;99520.63;;;18.11;44.60
83375;BME280;73282;50.882;5.984;2023-12-20T05:48:59;99529.09;;;18.13;44.74
83375;BME280;73282;50.882;5.984;2023-12-20T05:51:28;99523.31;;;18.11;44.91
83375;BME280;73282;50.882;5.984;2023-12-20T05:53:58;99523.91;;;18.08;44.70
83375;BME280;73282;50.882;5.984;2023-12-20T05:56:29;99535.06;;;18.10;44.56
83375;BME280;73282;50.882;5.984;2023-12-20T05:59:02;99537.25;;;18.08;44.67
83375;BME280;73282;50.882;5.984;2023-12-20T06:01:29;99536.19;;;18.09;44.43
83375;BME280;73282;50.882;5.984;2023-12-20T06:03:59;99529.25;;;18.08;44.47
83375;BME280;73282;50.882;5.984;2023-12-20T06:06:29;99538.84;;;18.09;44.94
83375;BME280;73282;50.882;5.984;2023-12-20T06:09:00;99539.63;;;18.10;44.94
83375;BME280;73282;50.882;5.984;2023-12-20T06:11:26;99522.03;;;18.09;44.98
83375;BME280;73282;50.882;5.984;2023-12-20T06:13:56;99531.59;;;18.10;44.51
83375;BME280;73282;50.882;5.984;2023-12-20T06:16:24;99530.03;;;18.09;44.65
83375;BME280;73282;50.882;5.984;2023-12-20T06:18:57;99530.34;;;18.07;44.45
83375;BME280;73282;50.882;5.984;2023-12-20T06:21:24;99534.59;;;18.08;44.76
83375;BME280;73282;50.882;5.984;2023-12-20T06:23:56;99528.94;;;18.10;44.66
83375;BME280;73282;50.882;5.984;2023-12-20T06:26:24;99544.19;;;18.09;44.71
83375;BME280;73282;50.882;5.984;2023-12-20T06:28:51;99548.75;;;18.09;44.47
83375;BME280;73282;50.882;5.984;2023-12-20T06:31:23;99544.47;;;18.08;44.49
83375;BME280;73282;50.882;5.984;2023-12-20T06:33:52;99539.63;;;18.10;44.46
83375;BME280;73282;50.882;5.984;2023-12-20T06:36:23;99548.44;;;18.10;44.73
83375;BME280;73282;50.882;5.984;2023-12-20T06:38:51;99552.97;;;18.10;44.64
83375;BME280;73282;50.882;5.984;2023-12-20T06:41:21;99541.69;;;18.13;44.91
83375;BME280;73282;50.882;5.984;2023-12-20T06:43:50;99558.72;;;18.17;44.88
83375;BME280;73282;50.882;5.984;2023-12-20T06:46:18;99552.25;;;18.18;45.06
83375;BME280;73282;50.882;5.984;2023-12-20T06:48:47;99550.88;;;18.20;44.81
83375;BME280;73282;50.882;5.984;2023-12-20T06:51:15;99545.53;;;18.20;45.26
83375;BME280;73282;50.882;5.984;2023-12-20T06:53:43;99553.53;;;18.20;45.08
83375;BME280;73282;50.882;5.984;2023-12-20T06:56:15;99552.25;;;18.18;44.84
83375;BME280;73282;50.882;5.984;2023-12-20T06:58:46;99560.59;;;18.16;44.85
83375;BME280;73282;50.882;5.984;2023-12-20T07:01:13;99567.38;;;18.22;44.98
83375;BME280;73282;50.882;5.984;2023-12-20T07:03:43;99567.06;;;18.24;44.74
83375;BME280;73282;50.882;5.984;2023-12-20T07:06:15;99548.50;;;18.19;44.87
83375;BME280;73282;50.882;5.984;2023-12-20T07:08:42;99558.88;;;18.20;44.96
83375;BME280;73282;50.882;5.984;2023-12-20T07:11:12;99559.38;;;18.22;45.01
83375;BME280;73282;50.882;5.984;2023-12-20T07:13:45;99549.94;;;18.25;44.80
83375;BME280;73282;50.882;5.984;2023-12-20T07:16:15;99556.56;;;18.27;44.80
83375;BME280;73282;50.882;5.984;2023-12-20T07:18:44;99553.41;;;18.25;44.97
83375;BME280;73282;50.882;5.984;2023-12-20T07:21:14;99554.69;;;18.28;45.17
83375;BME280;73282;50.882;5.984;2023-12-20T07:23:41;99550.41;;;18.27;45.11
83375;BME280;73282;50.882;5.984;2023-12-20T07:26:07;99555.75;;;18.27;44.84
83375;BME280;73282;50.882;5.984;2023-12-20T07:28:34;99552.81;;;18.28;45.04
83375;BME280;73282;50.882;5.984;2023-12-20T07:31:09;99555.34;;;18.34;46.79
83375;BME280;73282;50.882;5.984;2023-12-20T07:33:39;99547.75;;;18.27;45.44
83375;BME280;73282;50.882;5.984;2023-12-20T07:36:08;99560.94;;;18.23;46.27
83375;BME280;73282;50.882;5.984;2023-12-20T07:38:35;99565.50;;;18.23;45.91
83375;BME280;73282;50.882;5.984;2023-12-20T07:41:05;99561.72;;;18.24;46.30
83375;BME280;73282;50.882;5.984;2023-12-20T07:43:35;99562.53;;;18.24;45.92
83375;BME280;73282;50.882;5.984;2023-12-20T07:46:08;99563.00;;;18.26;45.81
83375;BME280;73282;50.882;5.984;2023-12-20T07:48:35;99564.28;;;18.29;45.98
83375;BME280;73282;50.882;5.984;2023-12-20T07:51:05;99550.31;;;18.32;45.95
83375;BME280;73282;50.882;5.984;2023-12-20T07:53:36;99544.97;;;18.32;46.12
83375;BME280;73282;50.882;5.984;2023-12-20T07:56:13;99539.59;;;18.32;46.26
83375;BME280;73282;50.882;5.984;2023-12-20T07:58:46;99554.53;;;18.33;46.38
83375;BME280;73282;50.882;5.984;2023-12-20T08:01:16;99556.78;;;18.40;47.19
83375;BME280;73282;50.882;5.984;2023-12-20T08:03:42;99559.47;;;18.40;47.43
83375;BME280;73282;50.882;5.984;2023-12-20T08:06:09;99553.63;;;18.38;47.72
83375;BME280;73282;50.882;5.984;2023-12-20T08:08:38;99559.47;;;18.40;47.43
83375;BME280;73282;50.882;5.984;2023-12-20T08:11:08;99555.69;;;18.41;47.26
83375;BME280;73282;50.882;5.984;2023-12-20T08:13:38;99558.88;;;18.43;47.62
83375;BME280;73282;50.882;5.984;2023-12-20T08:16:10;99556.09;;;18.48;47.25
83375;BME280;73282;50.882;5.984;2023-12-20T08:18:40;99564.59;;;18.50;47.64
83375;BME280;73282;50.882;5.984;2023-12-20T08:21:12;99547.25;;;18.47;47.40
83375;BME280;73282;50.882;5.984;2023-12-20T08:23:44;99549.31;;;18.50;47.54
83375;BME280;73282;50.882;5.984;2023-12-20T08:26:10;99545.38;;;18.48;47.25
83375;BME280;73282;50.882;5.984;2023-12-20T08:28:40;99555.94;;;18.53;46.40
83375;BME280;73282;50.882;5.984;2023-12-20T08:31:16;99535.81;;;18.55;47.57
83375;BME280;73282;50.882;5.984;2023-12-20T08:33:50;99540.84;;;18.57;47.96
83375;BME280;73282;50.882;5.984;2023-12-20T08:36:17;99542.31;;;18.63;46.75
83375;BME280;73282;50.882;5.984;2023-12-20T08:38:51;99558.34;;;18.63;46.90
83375;BME280;73282;50.882;5.984;2023-12-20T08:41:21;99547.03;;;18.66;48.23
83375;BME280;73282;50.882;5.984;2023-12-20T08:43:48;99553.78;;;18.63;47.69
83375;BME280;73282;50.882;5.984;2023-12-20T08:46:15;99560.72;;;18.64;47.86
83375;BME280;73282;50.882;5.984;2023-12-20T08:48:44;99558.34;;;18.63;47.44
83375;BME280;73282;50.882;5.984;2023-12-20T08:51:14;99560.84;;;18.59;47.72
83375;BME280;73282;50.882;5.984;2023-12-20T08:53:44;99555.19;;;18.61;49.39
83375;BME280;73282;50.882;5.984;2023-12-20T08:56:15;99568.56;;;18.61;48.99
83375;BME280;73282;50.882;5.984;2023-12-20T08:58:45;99567.78;;;18.60;49.07
83375;BME280;73282;50.882;5.984;2023-12-20T09:01:15;99571.56;;;18.59;47.61
83375;BME280;73282;50.882;5.984;2023-12-20T09:03:42;99564.50;;;18.63;48.63
83375;BME280;73282;50.882;5.984;2023-12-20T09:06:14;99573.50;;;18.76;48.08
83375;BME280;73282;50.882;5.984;2023-12-20T09:08:42;99567.06;;;18.77;47.66
83375;BME280;73282;50.882;5.984;2023-12-20T09:11:12;99575.22;;;18.72;46.75
83375;BME280;73282;50.882;5.984;2023-12-20T09:13:41;99579.28;;;18.69;47.72
83375;BME280;73282;50.882;5.984;2023-12-20T09:16:10;99577.25;;;18.66;46.35
83375;BME280;73282;50.882;5.984;2023-12-20T09:18:40;99583.06;;;18.68;46.24
83375;BME280;73282;50.882;5.984;2023-12-20T09:21:09;99582.91;;;18.65;45.24
83375;BME280;73282;50.882;5.984;2023-12-20T09:23:38;99580.25;;;18.65;45.98
83375;BME280;73282;50.882;5.984;2023-12-20T09:26:08;99587.47;;;18.64;44.74
83375;BME280;73282;50.882;5.984;2023-12-20T09:28:40;99585.91;;;18.63;46.15
83375;BME280;73282;50.882;5.984;2023-12-20T09:31:10;99562.09;;;18.62;46.35
83375;BME280;73282;50.882;5.984;2023-12-20T09:33:39;99568.88;;;18.59;45.03
83375;BME280;73282;50.882;5.984;2023-12-20T09:36:09;99560.84;;;18.59;45.33
83375;BME280;73282;50.882;5.984;2023-12-20T09:38:42;99570.75;;;18.59;46.34
83375;BME280;73282;50.882;5.984;2023-12-20T09:41:14;99565.25;;;18.55;45.05
83375;BME280;73282;50.882;5.984;2023-12-20T09:43:44;99555.78;;;18.58;43.73
83375;BME280;73282;50.882;5.984;2023-12-20T09:46:12;99558.47;;;18.58;44.72
83375;BME280;73282;50.882;5.984;2023-12-20T09:48:49;99565.25;;;18.55;45.51
83375;BME280;73282;50.882;5.984;2023-12-20T09:51:22;99561.47;;;18.56;44.92
83375;BME280;73282;50.882;5.984;2023-12-20T09:54:00;99558.94;;;18.60;44.68
83375;BME280;73282;50.882;5.984;2023-12-20T09:56:32;99556.00;;;18.61;45.25
83375;BME280;73282;50.882;5.984;2023-12-20T09:59:03;99549.22;;;18.64;44.34
83375;BME280;73282;50.882;5.984;2023-12-20T10:01:30;99560.72;;;18.64;44.86
83375;BME280;73282;50.882;5.984;2023-12-20T10:04:03;99563.38;;;18.64;45.25
83375;BME280;73282;50.882;5.984;2023-12-20T10:06:36;99555.38;;;18.64;45.07
83375;BME280;73282;50.882;5.984;2023-12-20T10:09:06;99568.44;;;18.66;45.16
83375;BME280;73282;50.882;5.984;2023-12-20T10:11:38;99559.47;;;18.70;44.53
83375;BME280;73282;50.882;5.984;2023-12-20T10:14:10;99556.66;;;18.75;45.05
83375;BME280;73282;50.882;5.984;2023-12-20T10:16:40;99545.97;;;18.75;44.42
83375;BME280;73282;50.882;5.984;2023-12-20T10:19:10;99549.28;;;18.81;48.18
83375;BME280;73282;50.882;5.984;2023-12-20T10:21:39;99535.31;;;18.92;42.72
83375;BME280;73282;50.882;5.984;2023-12-20T10:24:07;99537.22;;;19.00;41.60
83375;BME280;73282;50.882;5.984;2023-12-20T10:26:37;99520.25;;;19.05;40.85
83375;BME280;73282;50.882;5.984;2023-12-20T10:29:05;99528.59;;;19.12;40.95
83375;BME280;73282;50.882;5.984;2023-12-20T10:31:34;99525.13;;;19.11;40.89
83375;BME280;73282;50.882;5.984;2023-12-20T10:34:05;99511.72;;;19.03;41.13
83375;BME280;73282;50.882;5.984;2023-12-20T10:36:33;99513.44;;;18.99;41.11
83375;BME280;73282;50.882;5.984;2023-12-20T10:39:08;99522.44;;;18.24;42.55
83375;BME280;73282;50.882;5.984;2023-12-20T10:41:43;99500.34;;;17.66;42.63
83375;BME280;73282;50.882;5.984;2023-12-20T10:44:13;99503.63;;;17.14;42.41
83375;BME280;73282;50.882;5.984;2023-12-20T10:46:43;99502.78;;;16.64;44.00
83375;BME280;73282;50.882;5.984;2023-12-20T10:49:18;99506.50;;;16.36;43.53
83375;BME280;73282;50.882;5.984;2023-12-20T10:51:52;99507.88;;;16.33;44.05
83375;BME280;73282;50.882;5.984;2023-12-20T10:54:19;99519.78;;;16.55;44.62
83375;BME280;73282;50.882;5.984;2023-12-20T10:56:46;99525.22;;;16.90;43.18
83375;BME280;73282;50.882;5.984;2023-12-20T10:59:15;99525.41;;;16.94;42.87
83375;BME280;73282;50.882;5.984;2023-12-20T11:01:50;99517.09;;;17.09;43.15
83375;BME280;73282;50.882;5.984;2023-12-20T11:04:28;99516.88;;;17.19;42.90
83375;BME280;73282;50.882;5.984;2023-12-20T11:07:19;99516.31;;;17.08;42.68
83375;BME280;73282;50.882;5.984;2023-12-20T11:10:03;99517.41;;;16.94;42.66
83375;BME280;73282;50.882;5.984;2023-12-20T11:12:47;99524.00;;;16.96;43.12
83375;BME280;73282;50.882;5.984;2023-12-20T11:15:23;99521.56;;;17.00;43.05
83375;BME280;73282;50.882;5.984;2023-12-20T11:17:59;99483.00;;;17.06;43.08
83375;BME280;73282;50.882;5.984;2023-12-20T11:20:39;99474.72;;;17.29;43.02
83375;BME280;73282;50.882;5.984;2023-12-20T11:23:07;99471.94;;;17.48;42.75
83375;BME280;73282;50.882;5.984;2023-12-20T11:25:53;99513.94;;;17.56;42.84
83375;BME280;73282;50.882;5.984;2023-12-20T11:28:24;99475.78;;;17.56;42.98
83375;BME280;73282;50.882;5.984;2023-12-20T11:30:55;99470.63;;;17.59;42.80
83375;BME280;73282;50.882;5.984;2023-12-20T11:36:02;99468.53;;;17.56;42.54
83375;BME280;73282;50.882;5.984;2023-12-20T11:38:55;99460.25;;;17.58;42.90
83375;BME280;73282;50.882;5.984;2023-12-20T11:41:25;99465.59;;;17.58;43.16
83375;BME280;73282;50.882;5.984;2023-12-20T11:43:56;99450.47;;;17.53;43.09
83375;BME280;73282;50.882;5.984;2023-12-20T11:46:25;99433.06;;;17.56;42.88
83375;BME280;73282;50.882;5.984;2023-12-20T11:48:54;99440.94;;;17.61;43.02
83375;BME280;73282;50.882;5.984;2023-12-20T11:51:24;99440.03;;;17.65;42.86
83375;BME280;73282;50.882;5.984;2023-12-20T11:53:51;99445.22;;;17.70;42.63
83375;BME280;73282;50.882;5.984;2023-12-20T11:59:45;99435.38;;;17.79;42.54
83375;BME280;73282;50.882;5.984;2023-12-20T12:02:15;99429.28;;;17.79;42.60
83375;BME280;73282;50.882;5.984;2023-12-20T12:04:45;99430.84;;;17.80;42.45
83375;BME280;73282;50.882;5.984;2023-12-20T12:07:12;99421.69;;;17.72;42.70
83375;BME280;73282;50.882;5.984;2023-12-20T12:30:29;99447.28;;;17.73;42.37
83375;BME280;73282;50.882;5.984;2023-12-20T12:32:56;99396.81;;;17.63;42.19
83375;BME280;73282;50.882;5.984;2023-12-20T12:35:24;99382.69;;;17.71;42.56
83375;BME280;73282;50.882;5.984;2023-12-20T12:37:54;99398.47;;;17.81;42.28
83375;BME280;73282;50.882;5.984;2023-12-20T12:47:34;99388.31;;;17.92;42.06
83375;BME280;73282;50.882;5.984;2023-12-20T12:50:38;99378.41;;;17.92;42.15
83375;BME280;73282;50.882;5.984;2023-12-20T12:53:05;99382.19;;;17.91;42.12
83375;BME280;73282;50.882;5.984;2023-12-20T12:55:34;99380.72;;;17.85;42.07
83375;BME280;73282;50.882;5.984;2023-12-20T12:58:06;99389.72;;;17.89;42.19
83375;BME280;73282;50.882;5.984;2023-12-20T13:00:36;99381.84;;;17.84;42.80
83375;BME280;73282;50.882;5.984;2023-12-20T13:03:10;99384.28;;;17.50;42.69
83375;BME280;73282;50.882;5.984;2023-12-20T13:05:40;99379.38;;;17.66;43.00
83375;BME280;73282;50.882;5.984;2023-12-20T13:08:12;99386.31;;;17.67;42.63
83375;BME280;73282;50.882;5.984;2023-12-20T13:10:41;99389.25;;;17.43;42.96
83375;BME280;73282;50.882;5.984;2023-12-20T13:13:11;99387.66;;;17.56;43.26
83375;BME280;73282;50.882;5.984;2023-12-20T13:15:43;99381.78;;;17.76;42.93
83375;BME280;73282;50.882;5.984;2023-12-20T13:18:22;99414.66;;;17.85;42.92
83375;BME280;73282;50.882;5.984;2023-12-20T13:20:52;99367.34;;;17.77;42.86
83375;BME280;73282;50.882;5.984;2023-12-20T13:23:25;99363.63;;;17.86;42.88
83375;BME280;73282;50.882;5.984;2023-12-20T13:25:52;99357.25;;;17.74;43.21
83375;BME280;73282;50.882;5.984;2023-12-20T13:28:20;99351.97;;;17.82;43.22
83375;BME280;73282;50.882;5.984;2023-12-20T13:30:55;99354.16;;;17.80;43.33
83375;BME280;73282;50.882;5.984;2023-12-20T13:33:27;99345.28;;;17.71;43.26
83375;BME280;73282;50.882;5.984;2023-12-20T13:36:00;99333.38;;;17.77;43.28
83375;BME280;73282;50.882;5.984;2023-12-20T13:38:26;99336.09;;;17.86;43.21
83375;BME280;73282;50.882;5.984;2023-12-20T13:40:55;99338.47;;;17.87;43.32
83375;BME280;73282;50.882;5.984;2023-12-20T13:43:27;99327.94;;;17.91;43.25
83375;BME280;73282;50.882;5.984;2023-12-20T13:45:57;99342.41;;;17.90;42.75
83375;BME280;73282;50.882;5.984;2023-12-20T13:48:23;99377.78;;;16.98;45.92
83375;BME280;73282;50.882;5.984;2023-12-20T13:50:53;99330.50;;;16.27;47.74